sensor_id;sensor_type;location;lat;lon;timestamp;pressure;altitude;pressure_sealevel;temperature;humidity
44531;BME280;30240;47.418;0.700;2023-11-22T00:02:13;101308.50219726562;;;10.4;87.1
44531;BME280;30240;47.418;0.700;2023-11-22T00:04:38;101307.50122070312;;;10.37;87.13
44531;BME280;30240;47.418;0.700;2023-11-22T00:07:04;101308.25805664062;;;10.28;87.12
44531;BME280;30240;47.418;0.700;2023-11-22T00:09:28;101313.92211914062;;;10.3;87.2
44531;BME280;30240;47.418;0.700;2023-11-22T00:11:53;101313.92211914062;;;10.3;87.2
44531;BME280;30240;47.418;0.700;2023-11-22T00:14:19;101310.31494140625;;;10.29;87.32
44531;BME280;30240;47.418;0.700;2023-11-22T00:16:43;101311.63330078125;;;10.32;87.47
44531;BME280;30240;47.418;0.700;2023-11-22T00:19:09;101305.32836914062;;;10.25;87.57
44531;BME280;30240;47.418;0.700;2023-11-22T00:21:33;101312.34130859375;;;10.23;87.77
44531;BME280;30240;47.418;0.700;2023-11-22T00:23:58;101312.34130859375;;;10.23;87.77
44531;BME280;30240;47.418;0.700;2023-11-22T00:26:24;101309.2041015625;;;10.2;88.11
44531;BME280;30240;47.418;0.700;2023-11-22T00:28:48;101318.20068359375;;;10.19;88.34
44531;BME280;30240;47.418;0.700;2023-11-22T00:31:13;101320.34301757812;;;10.19;88.49
44531;BME280;30240;47.418;0.700;2023-11-22T00:33:38;101314.08081054688;;;10.22;88.61
44531;BME280;30240;47.418;0.700;2023-11-22T00:36:04;101314.08081054688;;;10.22;88.61
44531;BME280;30240;47.418;0.700;2023-11-22T00:38:28;101316.09497070312;;;10.16;88.65
44531;BME280;30240;47.418;0.700;2023-11-22T00:40:53;101315.63110351562;;;10.17;88.7
44531;BME280;30240;47.418;0.700;2023-11-22T00:43:18;101313.66577148438;;;10.17;88.78
44531;BME280;30240;47.418;0.700;2023-11-22T00:45:43;101323.828125;;;10.17;88.87
44531;BME280;30240;47.418;0.700;2023-11-22T00:48:08;101323.828125;;;10.17;88.87
44531;BME280;30240;47.418;0.700;2023-11-22T00:50:33;101324.64599609375;;;10.17;88.96
44531;BME280;30240;47.418;0.700;2023-11-22T00:52:59;101326.17797851562;;;10.19;88.98
44531;BME280;30240;47.418;0.700;2023-11-22T00:55:23;101329.79736328125;;;10.2;89.07
44531;BME280;30240;47.418;0.700;2023-11-22T00:57:49;101332.70263671875;;;10.19;89.07
44531;BME280;30240;47.418;0.700;2023-11-22T01:00:14;101332.70263671875;;;10.19;89.07
44531;BME280;30240;47.418;0.700;2023-11-22T01:02:39;101329.27856445312;;;10.19;89.21
44531;BME280;30240;47.418;0.700;2023-11-22T01:05:04;101331.298828125;;;10.2;89.31
44531;BME280;30240;47.418;0.700;2023-11-22T01:07:28;101325.22583007812;;;10.19;89.33
44531;BME280;30240;47.418;0.700;2023-11-22T01:09:53;101320.93505859375;;;10.19;89.47
44531;BME280;30240;47.418;0.700;2023-11-22T01:12:19;101327.13012695312;;;10.15;89.63
44531;BME280;30240;47.418;0.700;2023-11-22T01:14:44;101327.13012695312;;;10.15;89.63
44531;BME280;30240;47.418;0.700;2023-11-22T01:17:09;101328.52172851562;;;10.1;89.77
44531;BME280;30240;47.418;0.700;2023-11-22T01:19:34;101329.59594726562;;;10.1;89.89
44531;BME280;30240;47.418;0.700;2023-11-22T01:21:58;101337.2314453125;;;10.15;89.95
44531;BME280;30240;47.418;0.700;2023-11-22T01:24:24;101337.81127929688;;;10.12;90.03
44531;BME280;30240;47.418;0.700;2023-11-22T01:26:48;101337.81127929688;;;10.12;90.03
44531;BME280;30240;47.418;0.700;2023-11-22T01:29:14;101330.10864257812;;;10.12;90.11
44531;BME280;30240;47.418;0.700;2023-11-22T01:31:38;101330.78002929688;;;10.09;90.28
44531;BME280;30240;47.418;0.700;2023-11-22T01:34:03;101337.34130859375;;;10.09;90.27
44531;BME280;30240;47.418;0.700;2023-11-22T01:36:28;101337.00561523438;;;10.17;90.27
44531;BME280;30240;47.418;0.700;2023-11-22T01:38:53;101337.00561523438;;;10.17;90.27
44531;BME280;30240;47.418;0.700;2023-11-22T01:41:18;101339.00756835938;;;10.12;90.4
44531;BME280;30240;47.418;0.700;2023-11-22T01:43:43;101346.78344726562;;;10.13;90.47
44531;BME280;30240;47.418;0.700;2023-11-22T01:46:10;101348.193359375;;;10.08;90.59
44531;BME280;30240;47.418;0.700;2023-11-22T01:48:34;101350.09155273438;;;10.08;90.65
44531;BME280;30240;47.418;0.700;2023-11-22T01:50:58;101350.09155273438;;;10.08;90.65
44531;BME280;30240;47.418;0.700;2023-11-22T01:53:24;101346.66137695312;;;10.08;90.76
44531;BME280;30240;47.418;0.700;2023-11-22T01:55:48;101341.3818359375;;;10.1;90.81
44531;BME280;30240;47.418;0.700;2023-11-22T01:58:13;101342.66357421875;;;10.12;90.79
44531;BME280;30240;47.418;0.700;2023-11-22T02:00:43;101339.37377929688;;;10.1;90.9
44531;BME280;30240;47.418;0.700;2023-11-22T02:03:03;101339.37377929688;;;10.1;90.9
44531;BME280;30240;47.418;0.700;2023-11-22T02:05:28;101343.98193359375;;;10.09;91.0
44531;BME280;30240;47.418;0.700;2023-11-22T02:07:54;101336.97509765625;;;10.08;91.09
44531;BME280;30240;47.418;0.700;2023-11-22T02:10:18;101339.794921875;;;10.08;91.31
44531;BME280;30240;47.418;0.700;2023-11-22T02:12:43;101343.212890625;;;10.02;91.56
44531;BME280;30240;47.418;0.700;2023-11-22T02:15:09;101343.212890625;;;10.02;91.56
44531;BME280;30240;47.418;0.700;2023-11-22T02:17:33;101339.65454101562;;;9.99;91.68
44531;BME280;30240;47.418;0.700;2023-11-22T02:19:58;101337.77465820312;;;9.92;91.78
44531;BME280;30240;47.418;0.700;2023-11-22T02:22:23;101337.451171875;;;9.9;91.79
44531;BME280;30240;47.418;0.700;2023-11-22T02:24:49;101342.32788085938;;;9.88;91.76
44531;BME280;30240;47.418;0.700;2023-11-22T02:27:14;101342.32788085938;;;9.88;91.76
44531;BME280;30240;47.418;0.700;2023-11-22T02:29:38;101341.69311523438;;;9.95;91.61
44531;BME280;30240;47.418;0.700;2023-11-22T02:32:04;101342.08374023438;;;9.97;91.49
44531;BME280;30240;47.418;0.700;2023-11-22T02:34:28;101336.41967773438;;;10.02;91.35
44531;BME280;30240;47.418;0.700;2023-11-22T02:36:54;101334.01489257812;;;9.98;91.25
44531;BME280;30240;47.418;0.700;2023-11-22T02:39:19;101334.01489257812;;;9.98;91.25
44531;BME280;30240;47.418;0.700;2023-11-22T02:41:44;101339.31274414062;;;9.92;91.19
44531;BME280;30240;47.418;0.700;2023-11-22T02:44:09;101350.67138671875;;;9.91;91.18
44531;BME280;30240;47.418;0.700;2023-11-22T02:46:34;101359.12475585938;;;9.81;91.18
44531;BME280;30240;47.418;0.700;2023-11-22T02:48:59;101369.36645507812;;;9.82;91.28
44531;BME280;30240;47.418;0.700;2023-11-22T02:51:24;101362.60986328125;;;9.78;91.51
44531;BME280;30240;47.418;0.700;2023-11-22T02:53:49;101362.60986328125;;;9.78;91.51
44531;BME280;30240;47.418;0.700;2023-11-22T02:56:14;101362.14599609375;;;9.77;91.74
44531;BME280;30240;47.418;0.700;2023-11-22T02:58:39;101363.916015625;;;9.74;91.93
44531;BME280;30240;47.418;0.700;2023-11-22T03:01:04;101372.1435546875;;;9.73;92.05
44531;BME280;30240;47.418;0.700;2023-11-22T03:03:29;101373.4375;;;9.8;92.16
44531;BME280;30240;47.418;0.700;2023-11-22T03:05:54;101373.4375;;;9.8;92.16
44531;BME280;30240;47.418;0.700;2023-11-22T03:08:19;101369.11010742188;;;9.74;92.21
44531;BME280;30240;47.418;0.700;2023-11-22T03:10:44;101372.74780273438;;;9.73;92.19
44531;BME280;30240;47.418;0.700;2023-11-22T03:13:09;101372.81494140625;;;9.75;92.17
44531;BME280;30240;47.418;0.700;2023-11-22T03:15:34;101375.72631835938;;;9.77;91.97
44531;BME280;30240;47.418;0.700;2023-11-22T03:17:59;101375.72631835938;;;9.77;91.97
44531;BME280;30240;47.418;0.700;2023-11-22T03:20:24;101370.93505859375;;;9.8;91.79
44531;BME280;30240;47.418;0.700;2023-11-22T03:22:49;101372.5341796875;;;9.77;91.61
44531;BME280;30240;47.418;0.700;2023-11-22T03:25:14;101366.27197265625;;;9.78;91.48
44531;BME280;30240;47.418;0.700;2023-11-22T03:27:39;101362.87231445312;;;9.75;91.35
44531;BME280;30240;47.418;0.700;2023-11-22T03:30:04;101362.87231445312;;;9.75;91.35
44531;BME280;30240;47.418;0.700;2023-11-22T03:32:29;101368.02978515625;;;9.75;91.18
44531;BME280;30240;47.418;0.700;2023-11-22T03:34:54;101377.15454101562;;;9.77;91.03
44531;BME280;30240;47.418;0.700;2023-11-22T03:37:19;101381.298828125;;;9.78;90.89
44531;BME280;30240;47.418;0.700;2023-11-22T03:39:43;101387.646484375;;;9.77;90.69
44531;BME280;30240;47.418;0.700;2023-11-22T03:42:09;101387.646484375;;;9.77;90.69
44531;BME280;30240;47.418;0.700;2023-11-22T03:44:34;101390.90576171875;;;9.82;90.62
44531;BME280;30240;47.418;0.700;2023-11-22T03:46:59;101394.13452148438;;;9.85;90.46
44531;BME280;30240;47.418;0.700;2023-11-22T03:49:24;101396.142578125;;;9.78;90.25
44531;BME280;30240;47.418;0.700;2023-11-22T03:51:49;101401.45874023438;;;9.84;90.1
44531;BME280;30240;47.418;0.700;2023-11-22T03:54:14;101401.45874023438;;;9.84;90.1
44531;BME280;30240;47.418;0.700;2023-11-22T03:56:39;101400.69580078125;;;9.84;90.08
44531;BME280;30240;47.418;0.700;2023-11-22T03:59:04;101404.76684570312;;;9.81;89.98
44531;BME280;30240;47.418;0.700;2023-11-22T04:01:29;101403.3935546875;;;9.81;89.91
44531;BME280;30240;47.418;0.700;2023-11-22T04:03:53;101401.20239257812;;;9.74;89.82
44531;BME280;30240;47.418;0.700;2023-11-22T04:06:19;101401.20239257812;;;9.74;89.82
44531;BME280;30240;47.418;0.700;2023-11-22T04:08:44;101406.0302734375;;;9.75;89.91
44531;BME280;30240;47.418;0.700;2023-11-22T04:11:09;101404.9072265625;;;9.7;89.88
44531;BME280;30240;47.418;0.700;2023-11-22T07:58:20;101599.59106445312;;;9.4;84.37
44531;BME280;30240;47.418;0.700;2023-11-22T08:00:43;101599.37744140625;;;9.53;83.89
44531;BME280;30240;47.418;0.700;2023-11-22T08:03:09;101599.37744140625;;;9.53;83.89
44531;BME280;30240;47.418;0.700;2023-11-22T08:05:33;101587.451171875;;;10.2;82.36
44531;BME280;30240;47.418;0.700;2023-11-22T08:07:58;101586.71875;;;9.73;81.49
44531;BME280;30240;47.418;0.700;2023-11-22T08:10:24;101594.7021484375;;;9.81;80.61
44531;BME280;30240;47.418;0.700;2023-11-22T08:12:49;101573.88305664062;;;10.06;79.82
44531;BME280;30240;47.418;0.700;2023-11-22T08:15:14;101571.00219726562;;;9.9;79.14
44531;BME280;30240;47.418;0.700;2023-11-22T08:17:39;101571.00219726562;;;9.9;79.14
44531;BME280;30240;47.418;0.700;2023-11-22T08:20:05;101556.18896484375;;;10.44;79.04
44531;BME280;30240;47.418;0.700;2023-11-22T08:22:28;101543.36547851562;;;10.06;79.33
44531;BME280;30240;47.418;0.700;2023-11-22T08:24:53;101524.37744140625;;;9.8;79.41
44531;BME280;30240;47.418;0.700;2023-11-22T08:27:18;101522.0947265625;;;10.32;78.54
44531;BME280;30240;47.418;0.700;2023-11-22T08:29:43;101522.0947265625;;;10.32;78.54
44531;BME280;30240;47.418;0.700;2023-11-22T08:32:08;101563.5009765625;;;10.25;77.31
44531;BME280;30240;47.418;0.700;2023-11-22T08:34:33;101570.58715820312;;;10.57;75.66
44531;BME280;30240;47.418;0.700;2023-11-22T08:36:58;101600.79956054688;;;10.46;74.96
44531;BME280;30240;47.418;0.700;2023-11-22T08:39:23;101603.68041992188;;;10.58;73.06
44531;BME280;30240;47.418;0.700;2023-11-22T08:41:48;101603.68041992188;;;10.58;73.06
44531;BME280;30240;47.418;0.700;2023-11-22T08:44:14;101609.48486328125;;;10.96;72.06
44531;BME280;30240;47.418;0.700;2023-11-22T08:46:38;101613.20190429688;;;11.3;71.75
44531;BME280;30240;47.418;0.700;2023-11-22T08:49:04;101624.0966796875;;;11.44;70.05
44531;BME280;30240;47.418;0.700;2023-11-22T08:51:28;101623.80981445312;;;10.71;70.49
44531;BME280;30240;47.418;0.700;2023-11-22T08:53:53;101623.80981445312;;;10.71;70.49
44531;BME280;30240;47.418;0.700;2023-11-22T08:56:19;101620.93505859375;;;10.96;69.97
44531;BME280;30240;47.418;0.700;2023-11-22T08:58:43;101631.04858398438;;;11.15;69.7
44531;BME280;30240;47.418;0.700;2023-11-22T09:01:08;101623.095703125;;;11.62;69.76
44531;BME280;30240;47.418;0.700;2023-11-22T09:03:34;101626.81884765625;;;11.31;69.61
44531;BME280;30240;47.418;0.700;2023-11-22T09:05:59;101626.81884765625;;;11.31;69.61
44531;BME280;30240;47.418;0.700;2023-11-22T09:08:24;101623.52905273438;;;11.26;70.1
44531;BME280;30240;47.418;0.700;2023-11-22T09:10:49;101631.57958984375;;;10.86;70.62
44531;BME280;30240;47.418;0.700;2023-11-22T09:13:13;101632.763671875;;;10.05;72.52
44531;BME280;30240;47.418;0.700;2023-11-22T09:15:38;101647.49755859375;;;10.2;72.22
44531;BME280;30240;47.418;0.700;2023-11-22T09:18:04;101647.49755859375;;;10.2;72.22
44531;BME280;30240;47.418;0.700;2023-11-22T09:20:28;101644.64111328125;;;10.64;70.97
44531;BME280;30240;47.418;0.700;2023-11-22T09:22:54;101645.28198242188;;;10.46;71.54
44531;BME280;30240;47.418;0.700;2023-11-22T09:25:20;101655.01708984375;;;11.13;71.09
44531;BME280;30240;47.418;0.700;2023-11-22T09:27:43;101677.5634765625;;;11.97;70.43
44531;BME280;30240;47.418;0.700;2023-11-22T09:30:09;101677.5634765625;;;11.97;70.43
44531;BME280;30240;47.418;0.700;2023-11-22T09:32:33;101681.95190429688;;;11.35;70.07
44531;BME280;30240;47.418;0.700;2023-11-22T09:34:58;101696.56372070312;;;10.88;71.72
44531;BME280;30240;47.418;0.700;2023-11-22T09:37:26;101712.939453125;;;10.17;72.62
44531;BME280;30240;47.418;0.700;2023-11-22T09:39:48;101696.2158203125;;;11.33;71.54
44531;BME280;30240;47.418;0.700;2023-11-22T09:42:13;101688.4521484375;;;11.47;69.81
44531;BME280;30240;47.418;0.700;2023-11-22T09:44:39;101688.4521484375;;;11.47;69.81
44531;BME280;30240;47.418;0.700;2023-11-22T09:47:04;101686.73706054688;;;11.97;69.12
44531;BME280;30240;47.418;0.700;2023-11-22T09:49:29;101694.11010742188;;;11.42;69.56
44531;BME280;30240;47.418;0.700;2023-11-22T09:51:54;101696.69799804688;;;11.47;69.82
44531;BME280;30240;47.418;0.700;2023-11-22T09:54:20;101699.31030273438;;;11.59;69.5
44531;BME280;30240;47.418;0.700;2023-11-22T09:56:44;101699.31030273438;;;11.59;69.5
44531;BME280;30240;47.418;0.700;2023-11-22T09:59:11;101693.9453125;;;11.33;69.73
44531;BME280;30240;47.418;0.700;2023-11-22T10:01:34;101706.15844726562;;;11.92;69.4
44531;BME280;30240;47.418;0.700;2023-11-22T10:03:59;101708.23974609375;;;12.09;68.53
44531;BME280;30240;47.418;0.700;2023-11-22T10:06:24;101719.00024414062;;;11.47;69.07
44531;BME280;30240;47.418;0.700;2023-11-22T10:08:48;101719.00024414062;;;11.47;69.07
44531;BME280;30240;47.418;0.700;2023-11-22T10:11:15;101712.18872070312;;;11.3;70.0
44531;BME280;30240;47.418;0.700;2023-11-22T10:13:39;101716.26586914062;;;11.51;69.31
44531;BME280;30240;47.418;0.700;2023-11-22T10:16:09;101720.47729492188;;;11.28;68.68
44531;BME280;30240;47.418;0.700;2023-11-22T10:18:28;101707.8125;;;11.48;69.06
44531;BME280;30240;47.418;0.700;2023-11-22T10:20:53;101707.8125;;;11.48;69.06
44531;BME280;30240;47.418;0.700;2023-11-22T10:23:19;101709.08813476562;;;11.55;68.16
44531;BME280;30240;47.418;0.700;2023-11-22T10:25:44;101708.45336914062;;;11.71;68.61
44531;BME280;30240;47.418;0.700;2023-11-22T10:28:08;101711.52954101562;;;11.57;68.74
44531;BME280;30240;47.418;0.700;2023-11-22T10:30:33;101716.35131835938;;;11.24;68.64
44531;BME280;30240;47.418;0.700;2023-11-22T10:32:58;101716.35131835938;;;11.24;68.64
44531;BME280;30240;47.418;0.700;2023-11-22T10:35:23;101735.35766601562;;;10.78;71.39
44531;BME280;30240;47.418;0.700;2023-11-22T10:37:48;101738.1591796875;;;10.85;69.89
44531;BME280;30240;47.418;0.700;2023-11-22T10:40:14;101752.03857421875;;;9.99;72.32
44531;BME280;30240;47.418;0.700;2023-11-22T10:42:40;101749.64599609375;;;9.51;73.01
44531;BME280;30240;47.418;0.700;2023-11-22T10:45:04;101749.64599609375;;;9.51;73.01
44531;BME280;30240;47.418;0.700;2023-11-22T10:47:29;101766.90673828125;;;9.47;72.94
44531;BME280;30240;47.418;0.700;2023-11-22T10:49:53;101771.533203125;;;9.84;72.11
44531;BME280;30240;47.418;0.700;2023-11-22T10:52:19;101771.484375;;;10.1;71.6
44531;BME280;30240;47.418;0.700;2023-11-22T10:54:46;101753.173828125;;;10.56;71.07
44531;BME280;30240;47.418;0.700;2023-11-22T10:57:09;101753.173828125;;;10.56;71.07
44531;BME280;30240;47.418;0.700;2023-11-22T10:59:34;101741.6015625;;;11.66;68.66
44531;BME280;30240;47.418;0.700;2023-11-22T11:02:00;101729.18701171875;;;11.87;67.89
44531;BME280;30240;47.418;0.700;2023-11-22T11:04:26;101733.22143554688;;;11.75;66.91
44531;BME280;30240;47.418;0.700;2023-11-22T11:06:52;101735.986328125;;;11.72;68.15
44531;BME280;30240;47.418;0.700;2023-11-22T11:09:14;101735.986328125;;;11.72;68.15
44531;BME280;30240;47.418;0.700;2023-11-22T11:11:39;101736.5234375;;;12.04;67.84
44531;BME280;30240;47.418;0.700;2023-11-22T11:14:05;101727.11181640625;;;12.0;67.42
44531;BME280;30240;47.418;0.700;2023-11-22T11:16:30;101730.43823242188;;;12.28;67.16
44531;BME280;30240;47.418;0.700;2023-11-22T11:18:54;101729.3212890625;;;13.08;67.21
44531;BME280;30240;47.418;0.700;2023-11-22T11:21:19;101722.76611328125;;;12.79;66.24
44531;BME280;30240;47.418;0.700;2023-11-22T11:23:43;101722.76611328125;;;12.79;66.24
44531;BME280;30240;47.418;0.700;2023-11-22T11:26:14;101717.96875;;;12.69;67.25
44531;BME280;30240;47.418;0.700;2023-11-22T11:28:42;101727.45361328125;;;12.8;65.98
44531;BME280;30240;47.418;0.700;2023-11-22T11:30:58;101728.71704101562;;;13.22;65.4
44531;BME280;30240;47.418;0.700;2023-11-22T11:33:26;101732.4951171875;;;12.87;64.54
44531;BME280;30240;47.418;0.700;2023-11-22T11:35:49;101732.4951171875;;;12.87;64.54
44531;BME280;30240;47.418;0.700;2023-11-22T11:38:14;101743.14575195312;;;12.99;64.95
44531;BME280;30240;47.418;0.700;2023-11-22T11:40:40;101741.98608398438;;;12.89;65.37
44531;BME280;30240;47.418;0.700;2023-11-22T11:43:04;101742.48657226562;;;12.8;65.01
44531;BME280;30240;47.418;0.700;2023-11-22T11:45:29;101749.54833984375;;;13.66;63.83
44531;BME280;30240;47.418;0.700;2023-11-22T11:47:54;101749.54833984375;;;13.66;63.83
44531;BME280;30240;47.418;0.700;2023-11-22T11:50:20;101744.17114257812;;;13.59;64.57
44531;BME280;30240;47.418;0.700;2023-11-22T11:52:43;101735.56518554688;;;13.25;64.08
44531;BME280;30240;47.418;0.700;2023-11-22T11:55:08;101731.26831054688;;;12.27;65.05
44531;BME280;30240;47.418;0.700;2023-11-22T11:57:33;101730.47485351562;;;13.32;64.06
44531;BME280;30240;47.418;0.700;2023-11-22T11:59:58;101730.47485351562;;;13.32;64.06
44531;BME280;30240;47.418;0.700;2023-11-22T12:02:23;101735.09521484375;;;12.23;65.71
44531;BME280;30240;47.418;0.700;2023-11-22T12:04:48;101737.92724609375;;;12.77;64.76
44531;BME280;30240;47.418;0.700;2023-11-22T12:07:13;101744.81811523438;;;12.17;65.33
44531;BME280;30240;47.418;0.700;2023-11-22T12:09:38;101747.314453125;;;12.14;66.15
44531;BME280;30240;47.418;0.700;2023-11-22T12:12:04;101747.314453125;;;12.14;66.15
44531;BME280;30240;47.418;0.700;2023-11-22T12:14:28;101738.25073242188;;;12.31;65.78
44531;BME280;30240;47.418;0.700;2023-11-22T12:16:53;101724.20043945312;;;12.58;65.64
44531;BME280;30240;47.418;0.700;2023-11-22T12:19:22;101718.10913085938;;;12.84;64.67
44531;BME280;30240;47.418;0.700;2023-11-22T12:21:43;101723.3154296875;;;12.44;64.1
44531;BME280;30240;47.418;0.700;2023-11-22T12:24:08;101723.3154296875;;;12.44;64.1
44531;BME280;30240;47.418;0.700;2023-11-22T12:26:33;101733.48388671875;;;13.29;62.69
44531;BME280;30240;47.418;0.700;2023-11-22T12:28:58;101733.935546875;;;12.93;63.59
44531;BME280;30240;47.418;0.700;2023-11-22T12:31:24;101731.65893554688;;;13.76;61.86
44531;BME280;30240;47.418;0.700;2023-11-22T12:33:48;101725.09155273438;;;13.31;62.37
44531;BME280;30240;47.418;0.700;2023-11-22T12:36:14;101725.09155273438;;;13.31;62.37
44531;BME280;30240;47.418;0.700;2023-11-22T12:38:40;101718.56079101562;;;13.35;62.5
44531;BME280;30240;47.418;0.700;2023-11-22T12:41:05;101704.6875;;;13.35;62.01
44531;BME280;30240;47.418;0.700;2023-11-22T12:43:28;101686.12670898438;;;13.5;62.34
44531;BME280;30240;47.418;0.700;2023-11-22T12:46:02;101680.078125;;;14.28;61.72
44531;BME280;30240;47.418;0.700;2023-11-22T12:48:20;101674.30419921875;;;13.34;62.22
44531;BME280;30240;47.418;0.700;2023-11-22T12:50:44;101674.30419921875;;;13.34;62.22
44531;BME280;30240;47.418;0.700;2023-11-22T12:53:09;101674.9755859375;;;13.43;62.12
44531;BME280;30240;47.418;0.700;2023-11-22T12:55:33;101669.42138671875;;;14.02;61.26
44531;BME280;30240;47.418;0.700;2023-11-22T12:57:59;101685.21728515625;;;13.41;61.4
44531;BME280;30240;47.418;0.700;2023-11-22T13:00:23;101695.67260742188;;;13.84;60.06
44531;BME280;30240;47.418;0.700;2023-11-22T13:02:48;101695.67260742188;;;13.84;60.06
44531;BME280;30240;47.418;0.700;2023-11-22T13:05:13;101715.7470703125;;;13.97;60.58
44531;BME280;30240;47.418;0.700;2023-11-22T13:07:38;101727.82592773438;;;13.76;61.4
44531;BME280;30240;47.418;0.700;2023-11-22T13:10:04;101735.21728515625;;;14.12;59.74
44531;BME280;30240;47.418;0.700;2023-11-22T13:12:28;101742.29736328125;;;13.48;61.61
44531;BME280;30240;47.418;0.700;2023-11-22T13:14:54;101742.29736328125;;;13.48;61.61
44531;BME280;30240;47.418;0.700;2023-11-22T13:17:18;101741.2353515625;;;13.21;63.62
44531;BME280;30240;47.418;0.700;2023-11-22T13:19:43;101735.2294921875;;;12.89;62.12
44531;BME280;30240;47.418;0.700;2023-11-22T13:22:08;101736.26708984375;;;13.15;62.47
44531;BME280;30240;47.418;0.700;2023-11-22T13:24:33;101731.70166015625;;;12.86;61.89
44531;BME280;30240;47.418;0.700;2023-11-22T13:26:58;101731.70166015625;;;12.86;61.89
44531;BME280;30240;47.418;0.700;2023-11-22T13:29:23;101724.99389648438;;;13.03;61.66
44531;BME280;30240;47.418;0.700;2023-11-22T13:31:48;101729.13818359375;;;13.65;60.43
44531;BME280;30240;47.418;0.700;2023-11-22T13:34:13;101714.8193359375;;;14.19;60.63
44531;BME280;30240;47.418;0.700;2023-11-22T13:36:38;101707.89184570312;;;14.15;59.74
44531;BME280;30240;47.418;0.700;2023-11-22T13:39:04;101707.89184570312;;;14.15;59.74
44531;BME280;30240;47.418;0.700;2023-11-22T13:41:28;101706.0791015625;;;13.14;61.77
44531;BME280;30240;47.418;0.700;2023-11-22T13:43:53;101702.5634765625;;;13.73;61.57
44531;BME280;30240;47.418;0.700;2023-11-22T13:46:18;101692.87719726562;;;13.12;61.71
44531;BME280;30240;47.418;0.700;2023-11-22T13:48:43;101698.13232421875;;;13.98;60.7
44531;BME280;30240;47.418;0.700;2023-11-22T13:51:08;101698.13232421875;;;13.98;60.7
44531;BME280;30240;47.418;0.700;2023-11-22T13:53:33;101693.212890625;;;14.09;61.21
44531;BME280;30240;47.418;0.700;2023-11-22T13:55:58;101698.486328125;;;14.05;59.74
44531;BME280;30240;47.418;0.700;2023-11-22T13:58:23;101695.8740234375;;;14.4;60.72
44531;BME280;30240;47.418;0.700;2023-11-22T14:00:48;101694.00024414062;;;13.7;61.0
44531;BME280;30240;47.418;0.700;2023-11-22T14:03:13;101694.00024414062;;;13.7;61.0
44531;BME280;30240;47.418;0.700;2023-11-22T14:05:38;101701.611328125;;;13.56;60.89
44531;BME280;30240;47.418;0.700;2023-11-22T14:08:04;101701.33056640625;;;13.76;61.01
44531;BME280;30240;47.418;0.700;2023-11-22T14:10:29;101703.90014648438;;;13.87;61.07
44531;BME280;30240;47.418;0.700;2023-11-22T14:12:54;101701.89819335938;;;13.84;60.6
44531;BME280;30240;47.418;0.700;2023-11-22T14:15:18;101701.89819335938;;;13.84;60.6
44531;BME280;30240;47.418;0.700;2023-11-22T14:17:44;101701.87377929688;;;13.93;60.47
44531;BME280;30240;47.418;0.700;2023-11-22T14:20:09;101705.57861328125;;;12.9;59.87
44531;BME280;30240;47.418;0.700;2023-11-22T14:22:34;101696.7529296875;;;12.76;60.92
44531;BME280;30240;47.418;0.700;2023-11-22T14:24:59;101702.25830078125;;;13.34;60.28
44531;BME280;30240;47.418;0.700;2023-11-22T14:27:24;101707.53173828125;;;12.89;60.65
44531;BME280;30240;47.418;0.700;2023-11-22T14:29:49;101707.53173828125;;;12.89;60.65
44531;BME280;30240;47.418;0.700;2023-11-22T14:32:14;101718.65844726562;;;12.96;60.46
44531;BME280;30240;47.418;0.700;2023-11-22T14:34:39;101712.46948242188;;;13.21;60.78
44531;BME280;30240;47.418;0.700;2023-11-22T14:37:04;101720.6298828125;;;13.36;60.04
44531;BME280;30240;47.418;0.700;2023-11-22T14:39:28;101734.01489257812;;;13.11;60.33
44531;BME280;30240;47.418;0.700;2023-11-22T14:41:54;101734.01489257812;;;13.11;60.33
44531;BME280;30240;47.418;0.700;2023-11-22T14:44:19;101744.64111328125;;;13.19;60.28
44531;BME280;30240;47.418;0.700;2023-11-22T14:46:44;101744.73266601562;;;12.63;60.83
44531;BME280;30240;47.418;0.700;2023-11-22T14:49:09;101741.3818359375;;;12.41;61.84
44531;BME280;30240;47.418;0.700;2023-11-22T14:51:34;101749.0234375;;;12.18;62.29
44531;BME280;30240;47.418;0.700;2023-11-22T14:53:59;101749.0234375;;;12.18;62.29
44531;BME280;30240;47.418;0.700;2023-11-22T14:56:24;101748.876953125;;;12.49;61.66
44531;BME280;30240;47.418;0.700;2023-11-22T14:58:48;101753.26538085938;;;12.69;61.43
44531;BME280;30240;47.418;0.700;2023-11-22T15:01:14;101756.56127929688;;;12.77;60.6
44531;BME280;30240;47.418;0.700;2023-11-22T15:03:39;101762.841796875;;;13.17;59.73
44531;BME280;30240;47.418;0.700;2023-11-22T15:06:04;101762.841796875;;;13.17;59.73
44531;BME280;30240;47.418;0.700;2023-11-22T15:08:28;101773.04077148438;;;13.53;59.33
44531;BME280;30240;47.418;0.700;2023-11-22T15:10:55;101761.5966796875;;;12.83;61.38